sensor_id;sensor_type;location;lat;lon;timestamp;P1;durP1;ratioP1;P2;durP2;ratioP2
77220;SDS011;66217;50.004;8.266;2023-05-07T00:01:47;3.00;;;1.75;;
77220;SDS011;66217;50.004;8.266;2023-05-07T00:04:12;4.35;;;1.63;;
77220;SDS011;66217;50.004;8.266;2023-05-07T00:06:38;3.83;;;1.80;;
77220;SDS011;66217;50.004;8.266;2023-05-07T00:09:04;2.83;;;1.60;;
77220;SDS011;66217;50.004;8.266;2023-05-07T00:11:30;2.03;;;1.52;;
77220;SDS011;66217;50.004;8.266;2023-05-07T00:13:56;4.00;;;1.98;;
77220;SDS011;66217;50.004;8.266;2023-05-07T00:16:21;3.80;;;1.92;;
77220;SDS011;66217;50.004;8.266;2023-05-07T00:18:47;7.07;;;1.60;;
77220;SDS011;66217;50.004;8.266;2023-05-07T00:21:13;4.00;;;1.67;;
77220;SDS011;66217;50.004;8.266;2023-05-07T00:23:38;2.78;;;1.60;;
77220;SDS011;66217;50.004;8.266;2023-05-07T00:26:04;3.83;;;1.70;;
77220;SDS011;66217;50.004;8.266;2023-05-07T00:28:29;5.75;;;1.80;;
77220;SDS011;66217;50.004;8.266;2023-05-07T00:30:55;3.47;;;1.63;;
77220;SDS011;66217;50.004;8.266;2023-05-07T00:33:21;5.50;;;1.75;;
77220;SDS011;66217;50.004;8.266;2023-05-07T00:35:47;4.40;;;1.58;;
77220;SDS011;66217;50.004;8.266;2023-05-07T00:38:13;3.80;;;1.95;;
77220;SDS011;66217;50.004;8.266;2023-05-07T00:40:39;5.00;;;2.10;;
77220;SDS011;66217;50.004;8.266;2023-05-07T00:43:04;4.97;;;2.30;;
77220;SDS011;66217;50.004;8.266;2023-05-07T00:45:29;3.10;;;2.20;;
77220;SDS011;66217;50.004;8.266;2023-05-07T00:47:55;5.30;;;2.45;;
77220;SDS011;66217;50.004;8.266;2023-05-07T00:50:23;4.93;;;2.47;;
77220;SDS011;66217;50.004;8.266;2023-05-07T00:52:48;3.75;;;2.10;;
77220;SDS011;66217;50.004;8.266;2023-05-07T00:55:14;6.43;;;2.55;;
77220;SDS011;66217;50.004;8.266;2023-05-07T00:57:41;4.88;;;2.38;;
77220;SDS011;66217;50.004;8.266;2023-05-07T01:00:07;4.40;;;2.28;;
77220;SDS011;66217;50.004;8.266;2023-05-07T01:02:34;2.97;;;2.20;;
77220;SDS011;66217;50.004;8.266;2023-05-07T01:05:01;3.60;;;2.38;;
77220;SDS011;66217;50.004;8.266;2023-05-07T01:07:28;5.05;;;2.13;;
77220;SDS011;66217;50.004;8.266;2023-05-07T01:09:53;3.22;;;1.77;;
77220;SDS011;66217;50.004;8.266;2023-05-07T01:12:19;4.43;;;2.47;;
77220;SDS011;66217;50.004;8.266;2023-05-07T01:14:45;4.70;;;2.00;;
77220;SDS011;66217;50.004;8.266;2023-05-07T01:17:10;4.65;;;2.35;;
77220;SDS011;66217;50.004;8.266;2023-05-07T01:19:36;6.15;;;2.47;;
77220;SDS011;66217;50.004;8.266;2023-05-07T01:22:03;6.35;;;2.80;;
77220;SDS011;66217;50.004;8.266;2023-05-07T01:24:41;9.60;;;2.60;;
77220;SDS011;66217;50.004;8.266;2023-05-07T01:27:07;10.13;;;2.60;;
77220;SDS011;66217;50.004;8.266;2023-05-07T01:29:34;5.90;;;2.92;;
77220;SDS011;66217;50.004;8.266;2023-05-07T01:32:00;6.82;;;2.35;;
77220;SDS011;66217;50.004;8.266;2023-05-07T01:34:27;6.97;;;2.35;;
77220;SDS011;66217;50.004;8.266;2023-05-07T01:36:54;7.68;;;2.15;;
77220;SDS011;66217;50.004;8.266;2023-05-07T01:39:22;6.55;;;2.42;;
77220;SDS011;66217;50.004;8.266;2023-05-07T01:41:49;11.95;;;2.55;;
77220;SDS011;66217;50.004;8.266;2023-05-07T01:44:15;7.28;;;2.63;;
77220;SDS011;66217;50.004;8.266;2023-05-07T01:46:42;5.78;;;2.30;;
77220;SDS011;66217;50.004;8.266;2023-05-07T01:49:07;10.23;;;2.63;;
77220;SDS011;66217;50.004;8.266;2023-05-07T01:51:33;5.57;;;2.50;;
77220;SDS011;66217;50.004;8.266;2023-05-07T01:53:59;6.15;;;2.47;;
77220;SDS011;66217;50.004;8.266;2023-05-07T01:56:25;8.60;;;2.53;;
77220;SDS011;66217;50.004;8.266;2023-05-07T01:58:51;7.43;;;2.80;;
77220;SDS011;66217;50.004;8.266;2023-05-07T02:01:17;9.15;;;2.38;;
77220;SDS011;66217;50.004;8.266;2023-05-07T02:03:43;3.60;;;2.30;;
77220;SDS011;66217;50.004;8.266;2023-05-07T02:06:17;9.63;;;2.67;;
77220;SDS011;66217;50.004;8.266;2023-05-07T02:08:42;7.18;;;2.13;;
77220;SDS011;66217;50.004;8.266;2023-05-07T02:11:09;4.20;;;2.65;;
77220;SDS011;66217;50.004;8.266;2023-05-07T02:13:35;11.15;;;2.63;;
77220;SDS011;66217;50.004;8.266;2023-05-07T02:16:01;8.52;;;2.70;;
77220;SDS011;66217;50.004;8.266;2023-05-07T02:18:27;4.78;;;2.60;;
77220;SDS011;66217;50.004;8.266;2023-05-07T02:20:53;6.05;;;2.70;;
77220;SDS011;66217;50.004;8.266;2023-05-07T02:23:18;10.52;;;2.80;;
77220;SDS011;66217;50.004;8.266;2023-05-07T02:25:47;10.07;;;2.42;;
77220;SDS011;66217;50.004;8.266;2023-05-07T02:28:12;4.53;;;1.98;;
77220;SDS011;66217;50.004;8.266;2023-05-07T02:31:10;6.00;;;2.70;;
77220;SDS011;66217;50.004;8.266;2023-05-07T02:33:36;5.85;;;2.60;;
77220;SDS011;66217;50.004;8.266;2023-05-07T02:36:05;8.15;;;2.97;;
77220;SDS011;66217;50.004;8.266;2023-05-07T02:38:33;4.30;;;2.33;;
77220;SDS011;66217;50.004;8.266;2023-05-07T02:40:59;7.65;;;2.60;;
77220;SDS011;66217;50.004;8.266;2023-05-07T02:43:24;5.00;;;2.67;;
77220;SDS011;66217;50.004;8.266;2023-05-07T02:45:59;6.82;;;2.90;;
77220;SDS011;66217;50.004;8.266;2023-05-07T02:48:26;5.57;;;2.50;;
77220;SDS011;66217;50.004;8.266;2023-05-07T02:50:52;8.65;;;2.30;;
77220;SDS011;66217;50.004;8.266;2023-05-07T02:53:17;3.75;;;1.95;;
77220;SDS011;66217;50.004;8.266;2023-05-07T02:55:43;4.60;;;1.98;;
77220;SDS011;66217;50.004;8.266;2023-05-07T02:58:08;6.75;;;2.97;;
77220;SDS011;66217;50.004;8.266;2023-05-07T03:00:36;11.55;;;2.88;;
77220;SDS011;66217;50.004;8.266;2023-05-07T03:03:22;4.40;;;2.13;;
77220;SDS011;66217;50.004;8.266;2023-05-07T03:05:47;6.13;;;2.50;;
77220;SDS011;66217;50.004;8.266;2023-05-07T03:08:13;5.18;;;2.30;;
77220;SDS011;66217;50.004;8.266;2023-05-07T03:10:39;6.78;;;2.88;;
77220;SDS011;66217;50.004;8.266;2023-05-07T03:13:04;5.07;;;2.47;;
77220;SDS011;66217;50.004;8.266;2023-05-07T03:15:30;6.07;;;2.45;;
77220;SDS011;66217;50.004;8.266;2023-05-07T03:17:55;7.15;;;2.40;;
77220;SDS011;66217;50.004;8.266;2023-05-07T03:20:21;5.82;;;2.40;;
77220;SDS011;66217;50.004;8.266;2023-05-07T03:22:46;6.53;;;2.30;;
77220;SDS011;66217;50.004;8.266;2023-05-07T03:25:12;3.33;;;1.98;;
77220;SDS011;66217;50.004;8.266;2023-05-07T03:27:37;4.35;;;2.25;;
77220;SDS011;66217;50.004;8.266;2023-05-07T03:30:04;5.20;;;2.30;;
77220;SDS011;66217;50.004;8.266;2023-05-07T03:32:30;6.05;;;1.98;;
77220;SDS011;66217;50.004;8.266;2023-05-07T03:34:55;7.60;;;2.47;;
77220;SDS011;66217;50.004;8.266;2023-05-07T03:37:21;6.93;;;2.60;;
77220;SDS011;66217;50.004;8.266;2023-05-07T03:39:47;2.70;;;2.00;;
77220;SDS011;66217;50.004;8.266;2023-05-07T03:42:12;4.38;;;2.08;;
77220;SDS011;66217;50.004;8.266;2023-05-07T03:44:38;4.47;;;2.25;;
77220;SDS011;66217;50.004;8.266;2023-05-07T03:47:04;3.13;;;2.00;;
77220;SDS011;66217;50.004;8.266;2023-05-07T03:49:30;5.15;;;1.92;;
77220;SDS011;66217;50.004;8.266;2023-05-07T03:51:56;5.40;;;2.30;;
77220;SDS011;66217;50.004;8.266;2023-05-07T03:54:22;4.97;;;2.13;;
77220;SDS011;66217;50.004;8.266;2023-05-07T03:56:47;2.63;;;1.80;;
77220;SDS011;66217;50.004;8.266;2023-05-07T03:59:13;2.80;;;1.92;;
77220;SDS011;66217;50.004;8.266;2023-05-07T04:01:40;4.20;;;2.10;;
77220;SDS011;66217;50.004;8.266;2023-05-07T04:04:06;5.78;;;2.10;;
77220;SDS011;66217;50.004;8.266;2023-05-07T04:06:34;6.55;;;2.20;;
77220;SDS011;66217;50.004;8.266;2023-05-07T04:08:59;3.90;;;2.20;;
77220;SDS011;66217;50.004;8.266;2023-05-07T04:11:26;3.42;;;1.90;;
77220;SDS011;66217;50.004;8.266;2023-05-07T04:13:51;4.30;;;2.08;;
77220;SDS011;66217;50.004;8.266;2023-05-07T04:16:20;3.65;;;2.30;;
77220;SDS011;66217;50.004;8.266;2023-05-07T04:18:46;3.75;;;2.00;;
77220;SDS011;66217;50.004;8.266;2023-05-07T04:21:16;3.97;;;2.03;;
77220;SDS011;66217;50.004;8.266;2023-05-07T04:23:42;4.43;;;2.10;;
77220;SDS011;66217;50.004;8.266;2023-05-07T04:26:10;8.32;;;2.85;;
77220;SDS011;66217;50.004;8.266;2023-05-07T04:28:39;5.05;;;2.20;;
77220;SDS011;66217;50.004;8.266;2023-05-07T04:31:06;4.75;;;2.35;;
77220;SDS011;66217;50.004;8.266;2023-05-07T04:33:33;8.38;;;2.60;;
77220;SDS011;66217;50.004;8.266;2023-05-07T04:36:02;5.38;;;2.35;;
77220;SDS011;66217;50.004;8.266;2023-05-07T04:38:30;3.60;;;2.10;;
77220;SDS011;66217;50.004;8.266;2023-05-07T04:40:58;7.75;;;2.25;;
77220;SDS011;66217;50.004;8.266;2023-05-07T04:43:27;4.07;;;2.03;;
77220;SDS011;66217;50.004;8.266;2023-05-07T04:45:53;4.70;;;2.50;;
77220;SDS011;66217;50.004;8.266;2023-05-07T04:48:21;4.18;;;2.10;;
77220;SDS011;66217;50.004;8.266;2023-05-07T04:50:47;3.80;;;2.00;;
77220;SDS011;66217;50.004;8.266;2023-05-07T04:53:13;4.53;;;1.90;;
77220;SDS011;66217;50.004;8.266;2023-05-07T04:55:40;3.40;;;2.20;;
77220;SDS011;66217;50.004;8.266;2023-05-07T04:58:05;7.25;;;2.20;;
77220;SDS011;66217;50.004;8.266;2023-05-07T05:00:33;3.75;;;2.28;;
77220;SDS011;66217;50.004;8.266;2023-05-07T05:02:59;3.60;;;2.17;;
77220;SDS011;66217;50.004;8.266;2023-05-07T05:05:25;4.82;;;2.40;;
77220;SDS011;66217;50.004;8.266;2023-05-07T05:07:53;6.13;;;2.50;;
77220;SDS011;66217;50.004;8.266;2023-05-07T05:10:19;4.88;;;2.20;;
77220;SDS011;66217;50.004;8.266;2023-05-07T05:12:45;6.10;;;2.40;;
77220;SDS011;66217;50.004;8.266;2023-05-07T05:15:13;6.85;;;2.20;;
77220;SDS011;66217;50.004;8.266;2023-05-07T05:17:39;4.53;;;2.10;;
77220;SDS011;66217;50.004;8.266;2023-05-07T05:20:05;6.15;;;2.33;;
77220;SDS011;66217;50.004;8.266;2023-05-07T05:22:31;3.90;;;1.98;;
77220;SDS011;66217;50.004;8.266;2023-05-07T05:24:58;3.78;;;2.47;;
77220;SDS011;66217;50.004;8.266;2023-05-07T05:27:24;5.45;;;2.05;;
77220;SDS011;66217;50.004;8.266;2023-05-07T05:29:50;2.90;;;1.73;;
77220;SDS011;66217;50.004;8.266;2023-05-07T05:32:15;3.05;;;1.85;;
77220;SDS011;66217;50.004;8.266;2023-05-07T05:34:41;4.10;;;1.80;;
77220;SDS011;66217;50.004;8.266;2023-05-07T05:37:06;7.57;;;1.80;;
77220;SDS011;66217;50.004;8.266;2023-05-07T05:39:32;4.30;;;1.75;;
77220;SDS011;66217;50.004;8.266;2023-05-07T05:41:59;3.40;;;1.90;;
77220;SDS011;66217;50.004;8.266;2023-05-07T05:44:25;3.90;;;1.90;;
77220;SDS011;66217;50.004;8.266;2023-05-07T05:46:51;3.67;;;1.90;;
77220;SDS011;66217;50.004;8.266;2023-05-07T05:49:17;2.90;;;1.90;;
77220;SDS011;66217;50.004;8.266;2023-05-07T05:51:42;3.05;;;1.80;;
77220;SDS011;66217;50.004;8.266;2023-05-07T05:54:08;4.38;;;2.92;;
77220;SDS011;66217;50.004;8.266;2023-05-07T05:56:34;4.60;;;1.55;;
77220;SDS011;66217;50.004;8.266;2023-05-07T05:59:00;2.45;;;1.80;;
77220;SDS011;66217;50.004;8.266;2023-05-07T06:01:26;7.18;;;1.90;;
77220;SDS011;66217;50.004;8.266;2023-05-07T06:03:53;6.10;;;2.15;;
77220;SDS011;66217;50.004;8.266;2023-05-07T06:06:18;4.07;;;1.98;;
77220;SDS011;66217;50.004;8.266;2023-05-07T06:08:44;3.15;;;1.80;;
77220;SDS011;66217;50.004;8.266;2023-05-07T06:11:16;4.63;;;2.05;;
77220;SDS011;66217;50.004;8.266;2023-05-07T06:13:44;5.60;;;2.13;;
77220;SDS011;66217;50.004;8.266;2023-05-07T06:16:10;3.53;;;2.00;;
77220;SDS011;66217;50.004;8.266;2023-05-07T06:18:36;6.00;;;1.90;;
77220;SDS011;66217;50.004;8.266;2023-05-07T06:21:02;6.03;;;2.13;;
77220;SDS011;66217;50.004;8.266;2023-05-07T06:23:30;2.72;;;1.98;;
77220;SDS011;66217;50.004;8.266;2023-05-07T06:25:55;4.95;;;2.10;;
77220;SDS011;66217;50.004;8.266;2023-05-07T06:28:25;3.00;;;1.80;;
77220;SDS011;66217;50.004;8.266;2023-05-07T06:30:51;3.80;;;2.10;;
77220;SDS011;66217;50.004;8.266;2023-05-07T06:33:17;3.90;;;1.90;;
77220;SDS011;66217;50.004;8.266;2023-05-07T06:35:42;4.00;;;2.55;;
77220;SDS011;66217;50.004;8.266;2023-05-07T06:38:08;3.67;;;1.88;;
77220;SDS011;66217;50.004;8.266;2023-05-07T06:40:33;2.75;;;1.95;;
77220;SDS011;66217;50.004;8.266;2023-05-07T06:42:59;3.05;;;1.90;;
77220;SDS011;66217;50.004;8.266;2023-05-07T06:45:44;6.82;;;2.30;;
77220;SDS011;66217;50.004;8.266;2023-05-07T06:48:10;3.40;;;2.33;;
77220;SDS011;66217;50.004;8.266;2023-05-07T06:50:46;2.47;;;1.90;;
77220;SDS011;66217;50.004;8.266;2023-05-07T06:53:11;4.40;;;2.20;;
77220;SDS011;66217;50.004;8.266;2023-05-07T06:55:37;3.30;;;2.08;;
77220;SDS011;66217;50.004;8.266;2023-05-07T06:58:07;4.78;;;2.33;;
77220;SDS011;66217;50.004;8.266;2023-05-07T07:00:32;2.38;;;2.08;;
77220;SDS011;66217;50.004;8.266;2023-05-07T07:02:58;8.43;;;2.60;;
77220;SDS011;66217;50.004;8.266;2023-05-07T07:05:26;5.25;;;2.40;;
77220;SDS011;66217;50.004;8.266;2023-05-07T07:07:52;6.47;;;2.38;;
77220;SDS011;66217;50.004;8.266;2023-05-07T07:10:22;4.30;;;2.30;;
77220;SDS011;66217;50.004;8.266;2023-05-07T07:12:49;3.85;;;2.40;;
77220;SDS011;66217;50.004;8.266;2023-05-07T07:15:15;3.63;;;2.30;;
77220;SDS011;66217;50.004;8.266;2023-05-07T07:17:41;3.63;;;2.20;;
77220;SDS011;66217;50.004;8.266;2023-05-07T07:20:07;5.90;;;2.40;;
77220;SDS011;66217;50.004;8.266;2023-05-07T07:22:32;4.50;;;2.38;;
77220;SDS011;66217;50.004;8.266;2023-05-07T07:24:58;3.95;;;2.60;;
77220;SDS011;66217;50.004;8.266;2023-05-07T07:27:24;6.18;;;2.15;;
77220;SDS011;66217;50.004;8.266;2023-05-07T07:29:50;4.50;;;2.92;;
77220;SDS011;66217;50.004;8.266;2023-05-07T07:32:15;3.72;;;2.42;;
77220;SDS011;66217;50.004;8.266;2023-05-07T07:34:41;5.45;;;2.47;;
77220;SDS011;66217;50.004;8.266;2023-05-07T07:37:07;4.22;;;2.80;;
77220;SDS011;66217;50.004;8.266;2023-05-07T07:39:35;4.43;;;2.53;;
77220;SDS011;66217;50.004;8.266;2023-05-07T07:42:03;4.75;;;2.63;;
77220;SDS011;66217;50.004;8.266;2023-05-07T07:44:29;5.65;;;2.45;;
77220;SDS011;66217;50.004;8.266;2023-05-07T07:46:59;3.58;;;2.40;;
77220;SDS011;66217;50.004;8.266;2023-05-07T07:49:26;6.05;;;2.67;;
77220;SDS011;66217;50.004;8.266;2023-05-07T07:51:52;4.25;;;2.65;;
77220;SDS011;66217;50.004;8.266;2023-05-07T07:54:17;4.50;;;3.20;;
77220;SDS011;66217;50.004;8.266;2023-05-07T07:56:43;6.93;;;2.72;;
77220;SDS011;66217;50.004;8.266;2023-05-07T07:59:10;3.55;;;2.47;;
77220;SDS011;66217;50.004;8.266;2023-05-07T08:01:38;3.22;;;2.38;;
77220;SDS011;66217;50.004;8.266;2023-05-07T08:04:04;7.32;;;2.95;;
77220;SDS011;66217;50.004;8.266;2023-05-07T08:06:33;4.85;;;2.65;;
77220;SDS011;66217;50.004;8.266;2023-05-07T08:08:58;6.30;;;2.75;;
77220;SDS011;66217;50.004;8.266;2023-05-07T08:11:24;5.00;;;2.67;;
77220;SDS011;66217;50.004;8.266;2023-05-07T08:13:51;4.82;;;2.88;;
77220;SDS011;66217;50.004;8.266;2023-05-07T08:16:17;4.93;;;2.40;;
77220;SDS011;66217;50.004;8.266;2023-05-07T08:18:43;5.00;;;2.65;;
77220;SDS011;66217;50.004;8.266;2023-05-07T08:21:08;3.13;;;2.70;;
77220;SDS011;66217;50.004;8.266;2023-05-07T08:23:34;5.80;;;2.85;;
77220;SDS011;66217;50.004;8.266;2023-05-07T08:26:00;3.60;;;2.28;;
77220;SDS011;66217;50.004;8.266;2023-05-07T08:28:25;5.72;;;2.70;;
77220;SDS011;66217;50.004;8.266;2023-05-07T08:30:51;9.68;;;2.60;;
77220;SDS011;66217;50.004;8.266;2023-05-07T08:33:17;6.50;;;2.90;;
77220;SDS011;66217;50.004;8.266;2023-05-07T08:35:42;5.22;;;2.63;;
77220;SDS011;66217;50.004;8.266;2023-05-07T08:38:10;4.45;;;2.92;;
77220;SDS011;66217;50.004;8.266;2023-05-07T08:40:39;4.50;;;2.53;;
77220;SDS011;66217;50.004;8.266;2023-05-07T08:43:13;4.93;;;2.78;;
77220;SDS011;66217;50.004;8.266;2023-05-07T08:48:08;5.05;;;2.67;;
77220;SDS011;66217;50.004;8.266;2023-05-07T08:50:35;3.65;;;2.67;;
77220;SDS011;66217;50.004;8.266;2023-05-07T08:53:03;3.22;;;2.63;;
77220;SDS011;66217;50.004;8.266;2023-05-07T08:55:29;4.25;;;2.33;;
77220;SDS011;66217;50.004;8.266;2023-05-07T08:57:55;3.67;;;2.70;;
77220;SDS011;66217;50.004;8.266;2023-05-07T09:00:21;6.20;;;2.90;;
77220;SDS011;66217;50.004;8.266;2023-05-07T09:02:49;4.20;;;2.30;;
77220;SDS011;66217;50.004;8.266;2023-05-07T09:05:15;3.42;;;2.58;;
77220;SDS011;66217;50.004;8.266;2023-05-07T09:07:40;5.68;;;2.65;;
77220;SDS011;66217;50.004;8.266;2023-05-07T09:10:07;6.03;;;2.90;;
77220;SDS011;66217;50.004;8.266;2023-05-07T09:12:35;7.95;;;3.40;;
77220;SDS011;66217;50.004;8.266;2023-05-07T09:15:02;4.50;;;2.80;;
77220;SDS011;66217;50.004;8.266;2023-05-07T09:17:29;7.03;;;2.90;;
77220;SDS011;66217;50.004;8.266;2023-05-07T09:19:54;5.35;;;2.60;;
77220;SDS011;66217;50.004;8.266;2023-05-07T09:22:20;4.13;;;2.55;;
77220;SDS011;66217;50.004;8.266;2023-05-07T09:24:54;3.85;;;2.92;;
77220;SDS011;66217;50.004;8.266;2023-05-07T09:27:23;3.88;;;2.65;;
77220;SDS011;66217;50.004;8.266;2023-05-07T09:29:49;4.28;;;3.05;;
77220;SDS011;66217;50.004;8.266;2023-05-07T09:32:15;5.28;;;2.70;;
77220;SDS011;66217;50.004;8.266;2023-05-07T09:34:41;2.97;;;2.42;;
77220;SDS011;66217;50.004;8.266;2023-05-07T09:37:07;5.25;;;2.90;;
77220;SDS011;66217;50.004;8.266;2023-05-07T09:39:45;4.38;;;2.92;;
77220;SDS011;66217;50.004;8.266;2023-05-07T09:42:15;6.95;;;3.20;;
77220;SDS011;66217;50.004;8.266;2023-05-07T09:44:42;6.18;;;2.80;;
77220;SDS011;66217;50.004;8.266;2023-05-07T09:47:12;3.45;;;2.75;;
77220;SDS011;66217;50.004;8.266;2023-05-07T09:49:44;4.93;;;3.00;;
77220;SDS011;66217;50.004;8.266;2023-05-07T09:52:14;4.03;;;2.67;;
77220;SDS011;66217;50.004;8.266;2023-05-07T09:54:45;3.55;;;2.75;;
77220;SDS011;66217;50.004;8.266;2023-05-07T09:57:14;4.95;;;2.90;;
77220;SDS011;66217;50.004;8.266;2023-05-07T09:59:43;4.68;;;2.90;;
77220;SDS011;66217;50.004;8.266;2023-05-07T10:02:11;5.00;;;2.88;;
77220;SDS011;66217;50.004;8.266;2023-05-07T10:04:45;4.05;;;2.80;;
77220;SDS011;66217;50.004;8.266;2023-05-07T10:07:13;6.45;;;3.00;;
77220;SDS011;66217;50.004;8.266;2023-05-07T10:09:39;4.57;;;2.90;;
77220;SDS011;66217;50.004;8.266;2023-05-07T10:12:12;6.28;;;3.00;;
77220;SDS011;66217;50.004;8.266;2023-05-07T10:14:38;3.78;;;2.97;;
77220;SDS011;66217;50.004;8.266;2023-05-07T10:17:04;5.90;;;3.03;;
77220;SDS011;66217;50.004;8.266;2023-05-07T10:19:31;6.00;;;3.13;;
77220;SDS011;66217;50.004;8.266;2023-05-07T10:21:59;4.00;;;2.90;;
77220;SDS011;66217;50.004;8.266;2023-05-07T10:24:31;4.90;;;2.53;;
77220;SDS011;66217;50.004;8.266;2023-05-07T10:27:01;3.35;;;2.50;;
77220;SDS011;66217;50.004;8.266;2023-05-07T10:29:33;4.78;;;2.90;;
77220;SDS011;66217;50.004;8.266;2023-05-07T10:34:59;4.75;;;2.83;;
77220;SDS011;66217;50.004;8.266;2023-05-07T10:37:26;4.18;;;3.00;;
77220;SDS011;66217;50.004;8.266;2023-05-07T10:39:54;4.80;;;3.15;;
77220;SDS011;66217;50.004;8.266;2023-05-07T10:42:20;5.28;;;3.00;;
77220;SDS011;66217;50.004;8.266;2023-05-07T10:44:50;4.05;;;2.90;;
77220;SDS011;66217;50.004;8.266;2023-05-07T10:47:22;5.15;;;3.20;;
77220;SDS011;66217;50.004;8.266;2023-05-07T10:52:23;5.63;;;2.95;;
77220;SDS011;66217;50.004;8.266;2023-05-07T11:05:30;5.93;;;2.88;;
77220;SDS011;66217;50.004;8.266;2023-05-07T11:08:06;3.15;;;2.70;;
77220;SDS011;66217;50.004;8.266;2023-05-07T11:13:48;3.17;;;2.53;;
77220;SDS011;66217;50.004;8.266;2023-05-07T11:16:25;4.93;;;2.85;;
77220;SDS011;66217;50.004;8.266;2023-05-07T11:19:06;3.63;;;2.85;;
77220;SDS011;66217;50.004;8.266;2023-05-07T11:24:40;5.38;;;2.92;;
77220;SDS011;66217;50.004;8.266;2023-05-07T11:27:08;4.20;;;3.00;;
77220;SDS011;66217;50.004;8.266;2023-05-07T11:29:34;4.38;;;2.90;;
77220;SDS011;66217;50.004;8.266;2023-05-07T11:32:07;5.00;;;3.10;;
77220;SDS011;66217;50.004;8.266;2023-05-07T11:34:51;4.75;;;3.03;;
77220;SDS011;66217;50.004;8.266;2023-05-07T11:37:19;4.65;;;3.05;;
77220;SDS011;66217;50.004;8.266;2023-05-07T11:40:02;5.03;;;3.10;;
77220;SDS011;66217;50.004;8.266;2023-05-07T11:42:34;3.05;;;2.50;;
77220;SDS011;66217;50.004;8.266;2023-05-07T11:45:03;3.63;;;2.55;;
77220;SDS011;66217;50.004;8.266;2023-05-07T11:47:30;7.35;;;2.80;;
77220;SDS011;66217;50.004;8.266;2023-05-07T11:49:56;5.57;;;2.75;;
77220;SDS011;66217;50.004;8.266;2023-05-07T11:52:23;7.10;;;2.97;;
77220;SDS011;66217;50.004;8.266;2023-05-07T11:54:49;4.38;;;2.78;;
77220;SDS011;66217;50.004;8.266;2023-05-07T11:57:15;5.70;;;2.90;;
77220;SDS011;66217;50.004;8.266;2023-05-07T11:59:41;5.75;;;2.72;;
77220;SDS011;66217;50.004;8.266;2023-05-07T12:02:06;5.63;;;2.88;;
77220;SDS011;66217;50.004;8.266;2023-05-07T12:04:33;4.15;;;2.80;;
77220;SDS011;66217;50.004;8.266;2023-05-07T12:06:58;5.15;;;2.70;;
77220;SDS011;66217;50.004;8.266;2023-05-07T12:09:24;3.60;;;2.80;;
77220;SDS011;66217;50.004;8.266;2023-05-07T12:11:49;6.07;;;2.90;;
77220;SDS011;66217;50.004;8.266;2023-05-07T12:14:16;4.85;;;2.70;;
77220;SDS011;66217;50.004;8.266;2023-05-07T12:16:42;5.00;;;2.80;;
77220;SDS011;66217;50.004;8.266;2023-05-07T12:19:08;8.00;;;2.63;;
77220;SDS011;66217;50.004;8.266;2023-05-07T12:21:37;3.63;;;2.70;;
77220;SDS011;66217;50.004;8.266;2023-05-07T12:24:03;4.40;;;3.00;;
77220;SDS011;66217;50.004;8.266;2023-05-07T12:26:29;3.83;;;2.92;;
77220;SDS011;66217;50.004;8.266;2023-05-07T12:28:54;4.25;;;2.65;;
77220;SDS011;66217;50.004;8.266;2023-05-07T12:31:20;4.32;;;2.70;;
77220;SDS011;66217;50.004;8.266;2023-05-07T12:33:45;5.20;;;3.80;;
77220;SDS011;66217;50.004;8.266;2023-05-07T12:36:12;4.68;;;2.50;;
77220;SDS011;66217;50.004;8.266;2023-05-07T12:38:38;6.28;;;2.50;;
77220;SDS011;66217;50.004;8.266;2023-05-07T12:41:05;3.35;;;2.33;;
77220;SDS011;66217;50.004;8.266;2023-05-07T12:43:32;3.75;;;2.40;;
77220;SDS011;66217;50.004;8.266;2023-05-07T12:45:59;4.35;;;2.72;;
77220;SDS011;66217;50.004;8.266;2023-05-07T12:48:27;5.00;;;2.80;;
77220;SDS011;66217;50.004;8.266;2023-05-07T12:50:53;3.40;;;2.40;;
77220;SDS011;66217;50.004;8.266;2023-05-07T12:53:20;3.25;;;2.00;;
77220;SDS011;66217;50.004;8.266;2023-05-07T12:55:47;5.90;;;1.95;;
77220;SDS011;66217;50.004;8.266;2023-05-07T13:00:53;2.65;;;1.63;;
77220;SDS011;66217;50.004;8.266;2023-05-07T13:03:24;2.90;;;1.80;;
77220;SDS011;66217;50.004;8.266;2023-05-07T13:05:52;3.72;;;1.67;;
77220;SDS011;66217;50.004;8.266;2023-05-07T13:08:23;3.05;;;1.65;;
77220;SDS011;66217;50.004;8.266;2023-05-07T13:10:54;3.30;;;2.00;;
77220;SDS011;66217;50.004;8.266;2023-05-07T13:13:20;2.97;;;1.80;;
77220;SDS011;66217;50.004;8.266;2023-05-07T13:15:46;2.50;;;1.90;;
77220;SDS011;66217;50.004;8.266;2023-05-07T13:18:12;2.35;;;1.80;;
77220;SDS011;66217;50.004;8.266;2023-05-07T13:20:38;2.80;;;1.90;;
77220;SDS011;66217;50.004;8.266;2023-05-07T13:23:03;2.83;;;1.77;;
77220;SDS011;66217;50.004;8.266;2023-05-07T13:25:29;4.60;;;1.83;;
77220;SDS011;66217;50.004;8.266;2023-05-07T13:27:59;3.35;;;1.77;;
77220;SDS011;66217;50.004;8.266;2023-05-07T13:30:24;3.50;;;1.70;;
77220;SDS011;66217;50.004;8.266;2023-05-07T13:32:51;5.63;;;1.90;;
77220;SDS011;66217;50.004;8.266;2023-05-07T13:35:17;2.00;;;1.80;;
77220;SDS011;66217;50.004;8.266;2023-05-07T13:37:42;2.47;;;1.70;;
77220;SDS011;66217;50.004;8.266;2023-05-07T13:40:08;3.78;;;1.90;;
77220;SDS011;66217;50.004;8.266;2023-05-07T13:42:33;2.75;;;1.70;;
77220;SDS011;66217;50.004;8.266;2023-05-07T13:44:59;2.10;;;1.67;;
77220;SDS011;66217;50.004;8.266;2023-05-07T13:47:25;3.30;;;2.00;;
77220;SDS011;66217;50.004;8.266;2023-05-07T13:49:53;4.28;;;1.90;;
77220;SDS011;66217;50.004;8.266;2023-05-07T13:52:18;4.82;;;1.98;;
77220;SDS011;66217;50.004;8.266;2023-05-07T13:54:44;3.80;;;1.70;;
77220;SDS011;66217;50.004;8.266;2023-05-07T13:57:09;6.35;;;2.58;;
77220;SDS011;66217;50.004;8.266;2023-05-07T13:59:34;3.15;;;1.70;;
77220;SDS011;66217;50.004;8.266;2023-05-07T14:02:00;2.58;;;1.70;;
77220;SDS011;66217;50.004;8.266;2023-05-07T14:04:25;1.90;;;1.60;;
77220;SDS011;66217;50.004;8.266;2023-05-07T14:06:51;3.40;;;1.85;;
77220;SDS011;66217;50.004;8.266;2023-05-07T14:09:16;2.03;;;1.58;;
77220;SDS011;66217;50.004;8.266;2023-05-07T14:11:42;2.90;;;1.70;;
77220;SDS011;66217;50.004;8.266;2023-05-07T14:14:08;2.33;;;1.80;;
77220;SDS011;66217;50.004;8.266;2023-05-07T14:16:36;2.53;;;1.60;;
77220;SDS011;66217;50.004;8.266;2023-05-07T14:19:01;3.13;;;1.80;;
77220;SDS011;66217;50.004;8.266;2023-05-07T14:21:27;2.75;;;2.00;;
77220;SDS011;66217;50.004;8.266;2023-05-07T14:23:52;4.35;;;1.70;;
77220;SDS011;66217;50.004;8.266;2023-05-07T14:26:18;3.03;;;1.95;;
77220;SDS011;66217;50.004;8.266;2023-05-07T14:28:44;3.80;;;1.70;;
77220;SDS011;66217;50.004;8.266;2023-05-07T14:31:11;2.80;;;1.70;;
77220;SDS011;66217;50.004;8.266;2023-05-07T14:33:37;4.68;;;1.90;;
77220;SDS011;66217;50.004;8.266;2023-05-07T14:36:02;3.20;;;1.65;;
77220;SDS011;66217;50.004;8.266;2023-05-07T14:38:28;2.38;;;1.73;;
77220;SDS011;66217;50.004;8.266;2023-05-07T14:40:55;4.00;;;1.90;;
77220;SDS011;66217;50.004;8.266;2023-05-07T14:43:21;4.35;;;1.80;;
77220;SDS011;66217;50.004;8.266;2023-05-07T14:45:48;4.07;;;2.03;;
77220;SDS011;66217;50.004;8.266;2023-05-07T14:48:14;3.75;;;1.95;;
77220;SDS011;66217;50.004;8.266;2023-05-07T14:50:41;4.25;;;2.58;;
77220;SDS011;66217;50.004;8.266;2023-05-07T14:53:07;2.75;;;2.20;;
77220;SDS011;66217;50.004;8.266;2023-05-07T14:55:33;3.70;;;2.40;;
77220;SDS011;66217;50.004;8.266;2023-05-07T14:57:59;4.63;;;2.45;;
77220;SDS011;66217;50.004;8.266;2023-05-07T15:00:25;5.05;;;2.40;;
77220;SDS011;66217;50.004;8.266;2023-05-07T15:02:50;4.22;;;2.20;;
77220;SDS011;66217;50.004;8.266;2023-05-07T15:05:16;4.95;;;2.50;;
77220;SDS011;66217;50.004;8.266;2023-05-07T15:07:43;4.00;;;2.47;;
77220;SDS011;66217;50.004;8.266;2023-05-07T15:10:09;4.50;;;2.45;;
77220;SDS011;66217;50.004;8.266;2023-05-07T15:12:34;3.35;;;2.60;;
77220;SDS011;66217;50.004;8.266;2023-05-07T15:15:00;4.53;;;2.35;;